Terminal Aerodrome Forecast
Issued by NWS Los Angeles, CA

Current Version | Previous Version | Text Only | Print | Product List | Glossary On
Versions: 1 2 3 4 5 6 7 8 9 10 11 12
000
FTUS46 KLOX 270400 AAA
TAFSMX
TAF AMD
KSMX 270414Z 2704/2724 VRB03KT 5SM BR SCT250
     FM271100 VRB03KT 3SM BR BKN003
     FM271700 31010KT P6SM SCT005 BKN080
     FM272100 30020G28KT P6SM SCT025 BKN060=

USA.gov is the U.S. government's official web portal to all federal, state and local government web resources and services.